Time;durP1;ratioP1;P1;durP2;ratioP2;P2;SDS_P1;SDS_P2;PMS_P1;PMS_P2;Temp;Humidity;BMP_temperature;BMP_pressure;BME280_temperature;BME280_humidity;BME280_pressure;Samples;Min_cycle;Max_cycle;Signal;HPM_P1;HPM_P2
2021/09/18 00:00:54;;;;;;;9.57;7.63;;;12.70;96.50;;;;;;5017131;28;20258;-78
2021/09/18 00:03:21;;;;;;;7.70;7.00;;;12.70;96.80;;;;;;5017674;28;20238;-76
2021/09/18 00:05:48;;;;;;;8.52;7.63;;;12.60;97.20;;;;;;5016892;28;20301;-75
2021/09/18 00:08:15;;;;;;;8.93;8.00;;;12.60;97.30;;;;;;5018031;28;20222;-77
2021/09/18 00:10:43;;;;;;;8.65;7.82;;;12.50;97.70;;;;;;5017377;28;20774;-76
2021/09/18 00:13:10;;;;;;;8.48;7.78;;;12.50;97.80;;;;;;5016854;28;20207;-76
2021/09/18 00:15:37;;;;;;;8.80;7.57;;;12.50;98.30;;;;;;5017741;28;20242;-77
2021/09/18 00:18:04;;;;;;;8.63;7.45;;;12.50;98.60;;;;;;5017549;28;20269;-77
2021/09/18 00:20:32;;;;;;;8.00;7.30;;;12.50;98.90;;;;;;5016642;28;20262;-76
2021/09/18 00:22:59;;;;;;;9.10;7.38;;;12.40;98.70;;;;;;5016346;28;20727;-77
2021/09/18 00:25:26;;;;;;;12.02;8.02;;;12.40;98.80;;;;;;5016681;28;20310;-76
2021/09/18 00:27:55;;;;;;;8.90;8.10;;;12.40;98.90;;;;;;5020283;28;20270;-75
2021/09/18 00:30:22;;;;;;;8.43;7.50;;;12.40;99.10;;;;;;5016496;28;20318;-75
2021/09/18 00:32:49;;;;;;;8.05;7.35;;;12.30;99.30;;;;;;5015863;28;20249;-76
2021/09/18 00:35:16;;;;;;;8.50;7.70;;;12.30;99.40;;;;;;5015625;28;20318;-76
2021/09/18 00:37:43;;;;;;;9.10;7.55;;;12.30;99.90;;;;;;5015489;28;20210;-78
2021/09/18 00:40:11;;;;;;;9.25;7.72;;;12.30;99.90;;;;;;5015086;28;20316;-76
2021/09/18 00:42:38;;;;;;;8.55;7.75;;;12.30;99.90;;;;;;5015451;28;20214;-77
2021/09/18 00:45:08;;;;;;;8.82;7.93;;;12.20;99.90;;;;;;5016745;28;20301;-80
2021/09/18 00:47:35;;;;;;;8.10;7.35;;;12.20;99.90;;;;;;5015874;28;20745;-77
2021/09/18 00:50:04;;;;;;;8.23;7.40;;;12.20;99.90;;;;;;5015599;28;20259;-78
2021/09/18 00:52:31;;;;;;;8.95;8.00;;;12.20;99.90;;;;;;5015588;28;20305;-77
2021/09/18 00:54:58;;;;;;;9.70;8.35;;;12.20;99.90;;;;;;5015297;28;20207;-77
2021/09/18 00:57:25;;;;;;;8.70;7.80;;;12.10;99.90;;;;;;5017015;28;20925;-78
2021/09/18 00:59:52;;;;;;;9.23;8.32;;;12.10;99.90;;;;;;5015893;28;20329;-78
2021/09/18 01:02:20;;;;;;;9.02;8.00;;;12.00;99.90;;;;;;5016367;28;20271;-78
2021/09/18 01:04:48;;;;;;;8.75;7.82;;;12.00;99.90;;;;;;5018541;28;20219;-78
2021/09/18 01:07:15;;;;;;;8.45;7.55;;;12.00;99.90;;;;;;5030543;28;20273;-77
2021/09/18 01:09:42;;;;;;;7.95;7.15;;;12.00;99.90;;;;;;5030766;28;20250;-77
2021/09/18 01:12:09;;;;;;;8.85;8.05;;;12.00;99.90;;;;;;5029584;28;20297;-77
2021/09/18 01:14:36;;;;;;;9.88;8.15;;;12.00;99.90;;;;;;5028499;28;20210;-77
2021/09/18 01:17:04;;;;;;;9.25;7.63;;;12.00;99.90;;;;;;5018894;28;20210;-74
2021/09/18 01:19:32;;;;;;;10.85;8.60;;;12.00;99.90;;;;;;5016299;28;20719;-77
2021/09/18 01:22:01;;;;;;;10.65;8.15;;;11.90;99.90;;;;;;5022892;28;20247;-77
2021/09/18 01:24:29;;;;;;;10.55;9.45;;;11.90;99.90;;;;;;5031723;28;20264;-77
2021/09/18 01:26:56;;;;;;;10.52;8.85;;;11.90;99.90;;;;;;5035952;28;20211;-77
2021/09/18 01:29:23;;;;;;;10.15;9.02;;;12.00;99.90;;;;;;5030943;28;20257;-77
2021/09/18 01:31:50;;;;;;;9.68;8.77;;;11.90;99.90;;;;;;5022302;28;20305;-78
2021/09/18 01:34:19;;;;;;;10.32;9.32;;;11.90;99.90;;;;;;5019751;28;20636;-78
2021/09/18 01:36:46;;;;;;;10.18;9.27;;;11.90;99.90;;;;;;5015292;28;20563;-78
2021/09/18 01:39:15;;;;;;;9.63;8.63;;;11.90;99.90;;;;;;5017362;28;20745;-77
2021/09/18 01:41:45;;;;;;;9.80;8.80;;;11.90;99.90;;;;;;5014559;28;20230;-77
2021/09/18 01:44:12;;;;;;;11.50;8.70;;;11.90;99.90;;;;;;5015388;28;20670;-77
2021/09/18 01:46:40;;;;;;;11.05;9.60;;;11.80;99.90;;;;;;5016193;28;20687;-78
2021/09/18 01:49:13;;;;;;;10.30;9.30;;;11.80;99.90;;;;;;5018912;28;20736;-78
2021/09/18 01:51:41;;;;;;;9.82;8.70;;;11.80;99.90;;;;;;5033962;28;20272;-79
2021/09/18 01:54:08;;;;;;;11.02;9.18;;;11.80;99.90;;;;;;5037926;28;20317;-79
2021/09/18 01:56:35;;;;;;;8.82;7.93;;;11.70;99.90;;;;;;5026428;28;20222;-78
2021/09/18 01:59:03;;;;;;;10.30;9.30;;;11.70;99.90;;;;;;5021639;28;20576;-78
2021/09/18 02:01:30;;;;;;;9.23;8.40;;;11.60;99.90;;;;;;5018339;28;20255;-78
2021/09/18 02:03:57;;;;;;;9.25;8.15;;;11.60;99.90;;;;;;5022695;28;20271;-78
2021/09/18 02:06:24;;;;;;;10.55;7.97;;;11.50;99.90;;;;;;5026250;28;20207;-79
2021/09/18 02:08:51;;;;;;;8.65;7.75;;;11.50;99.90;;;;;;5021513;28;20215;-78
2021/09/18 02:11:18;;;;;;;9.35;8.55;;;11.50;99.90;;;;;;5019612;28;20277;-78
2021/09/18 02:13:45;;;;;;;7.70;7.00;;;11.50;99.90;;;;;;5019671;28;20218;-78
2021/09/18 02:16:13;;;;;;;8.23;7.53;;;11.50;99.90;;;;;;5022023;28;20206;-78
2021/09/18 02:18:40;;;;;;;9.13;8.23;;;11.50;99.90;;;;;;5020062;28;20230;-75
2021/09/18 02:21:07;;;;;;;8.95;8.05;;;11.50;99.90;;;;;;5018369;28;20229;-77
2021/09/18 02:23:34;;;;;;;7.82;7.13;;;11.40;99.90;;;;;;5018060;28;20217;-76
2021/09/18 02:26:01;;;;;;;8.70;7.68;;;11.40;99.90;;;;;;5019965;28;20209;-76
2021/09/18 02:28:28;;;;;;;7.97;7.25;;;11.40;99.90;;;;;;5020522;28;20290;-76
2021/09/18 02:30:55;;;;;;;8.90;8.00;;;11.40;99.90;;;;;;5018734;28;20382;-77
2021/09/18 02:33:23;;;;;;;9.57;8.52;;;11.40;99.90;;;;;;5018764;28;20277;-77
2021/09/18 02:35:50;;;;;;;9.68;8.55;;;11.40;99.90;;;;;;5020921;28;20254;-77
2021/09/18 02:38:17;;;;;;;11.88;9.10;;;11.40;99.90;;;;;;5016614;28;20215;-77
2021/09/18 02:40:47;;;;;;;11.10;9.85;;;11.30;99.90;;;;;;5018986;28;20233;-76
2021/09/18 02:43:14;;;;;;;9.80;8.27;;;11.30;99.90;;;;;;5017568;28;20218;-76
2021/09/18 02:45:41;;;;;;;9.90;8.90;;;11.30;99.90;;;;;;5015661;28;20292;-77
2021/09/18 02:48:08;;;;;;;11.07;9.98;;;11.30;99.90;;;;;;5015876;28;20708;-77
2021/09/18 02:50:37;;;;;;;11.70;9.60;;;11.30;99.90;;;;;;5017994;28;20279;-77
2021/09/18 02:53:04;;;;;;;10.13;8.70;;;11.20;99.90;;;;;;5015235;28;20216;-76
2021/09/18 02:55:31;;;;;;;10.98;9.85;;;11.20;99.90;;;;;;5014719;28;20215;-74
2021/09/18 02:57:58;;;;;;;10.88;8.95;;;11.20;99.90;;;;;;5013711;28;20222;-77
2021/09/18 03:00:25;;;;;;;9.52;8.65;;;11.20;99.90;;;;;;5013355;28;20247;-74
2021/09/18 03:02:51;;;;;;;9.25;8.35;;;11.20;99.90;;;;;;5014460;28;20322;-76
2021/09/18 03:05:18;;;;;;;10.93;9.82;;;11.20;99.90;;;;;;5014705;28;20215;-76
2021/09/18 03:07:47;;;;;;;10.10;9.10;;;11.10;99.90;;;;;;5013948;28;20297;-76
2021/09/18 03:10:14;;;;;;;10.30;8.55;;;11.10;99.90;;;;;;5012685;28;20306;-75
2021/09/18 03:12:41;;;;;;;10.30;9.10;;;11.10;99.90;;;;;;5012517;28;20238;-76
2021/09/18 03:15:10;;;;;;;12.70;9.18;;;11.00;99.90;;;;;;5012519;28;20238;-77
2021/09/18 03:17:37;;;;;;;10.90;8.90;;;11.00;99.90;;;;;;5012595;28;20245;-76
2021/09/18 03:20:06;;;;;;;10.82;9.10;;;11.00;99.90;;;;;;5012626;28;20433;-74
2021/09/18 03:22:33;;;;;;;17.00;9.40;;;11.00;99.90;;;;;;5016043;28;20261;-74
2021/09/18 03:25:01;;;;;;;10.85;9.70;;;10.90;99.90;;;;;;5016177;28;20304;-74
2021/09/18 03:27:28;;;;;;;10.05;9.05;;;10.90;99.90;;;;;;5015750;28;20313;-74
2021/09/18 03:29:55;;;;;;;11.15;9.32;;;10.90;99.90;;;;;;5015923;28;20748;-75
2021/09/18 03:32:22;;;;;;;9.85;8.85;;;10.90;99.90;;;;;;5016084;28;20603;-74
2021/09/18 03:34:49;;;;;;;11.02;9.95;;;10.90;99.90;;;;;;5016088;28;20327;-74
2021/09/18 03:37:16;;;;;;;11.95;9.60;;;10.90;99.90;;;;;;5015834;28;20209;-75
2021/09/18 03:39:43;;;;;;;10.57;8.50;;;10.90;99.90;;;;;;5015788;28;20328;-76
2021/09/18 03:42:11;;;;;;;10.15;8.38;;;10.80;99.90;;;;;;5015761;28;20780;-75
2021/09/18 03:44:38;;;;;;;9.38;8.48;;;10.80;99.90;;;;;;5015979;28;20211;-77
2021/09/18 03:47:05;;;;;;;11.50;9.35;;;10.80;99.90;;;;;;5016572;28;20300;-76
2021/09/18 03:49:32;;;;;;;9.25;8.20;;;10.80;99.90;;;;;;5026972;28;20237;-77
2021/09/18 03:51:59;;;;;;;9.63;8.68;;;10.80;99.90;;;;;;5029971;28;20205;-77
2021/09/18 03:54:26;;;;;;;10.25;9.27;;;10.70;99.90;;;;;;5018167;28;20209;-77
2021/09/18 03:56:53;;;;;;;10.65;9.40;;;10.70;99.90;;;;;;5016188;28;20255;-76
2021/09/18 03:59:21;;;;;;;9.88;8.45;;;10.70;99.90;;;;;;5038685;23;20293;-83
2021/09/18 04:01:48;;;;;;;11.32;9.35;;;10.70;99.90;;;;;;5040489;28;20217;-81
2021/09/18 04:04:15;;;;;;;9.10;8.20;;;10.70;99.90;;;;;;5037862;28;20237;-79
2021/09/18 04:06:42;;;;;;;11.20;9.55;;;10.70;99.90;;;;;;5032133;28;20231;-79
2021/09/18 04:09:09;;;;;;;10.13;9.07;;;10.60;99.90;;;;;;5032819;28;20508;-79
2021/09/18 04:11:36;;;;;;;10.82;9.70;;;10.70;99.90;;;;;;5031340;28;20233;-78
2021/09/18 04:14:03;;;;;;;10.40;9.38;;;10.60;99.90;;;;;;5020471;28;20209;-79
2021/09/18 04:16:31;;;;;;;10.80;8.80;;;10.60;99.90;;;;;;5018881;28;20305;-79
2021/09/18 04:18:58;;;;;;;10.52;9.32;;;10.60;99.90;;;;;;5018555;28;20559;-79
2021/09/18 04:21:25;;;;;;;11.38;10.18;;;10.60;99.90;;;;;;5019070;28;20253;-80
2021/09/18 04:23:52;;;;;;;10.23;9.23;;;10.60;99.90;;;;;;5020057;28;20236;-78
2021/09/18 04:26:19;;;;;;;10.48;8.77;;;10.60;99.90;;;;;;5019491;28;20234;-79
2021/09/18 04:28:46;;;;;;;10.98;9.77;;;10.60;99.90;;;;;;5019338;28;20695;-78
2021/09/18 04:31:13;;;;;;;10.77;9.05;;;10.60;99.90;;;;;;5017131;28;20257;-78
2021/09/18 04:33:41;;;;;;;8.55;7.75;;;10.60;99.90;;;;;;5028966;28;20215;-79
2021/09/18 04:36:08;;;;;;;10.93;8.93;;;10.60;99.90;;;;;;5039343;28;20201;-79
2021/09/18 04:38:35;;;;;;;9.90;8.23;;;10.60;99.90;;;;;;5025338;28;20233;-79
2021/09/18 04:41:02;;;;;;;10.75;9.23;;;10.60;99.90;;;;;;5024274;28;20231;-80
2021/09/18 04:43:29;;;;;;;14.00;8.82;;;10.60;99.90;;;;;;5023369;28;20267;-78
2021/09/18 04:45:56;;;;;;;10.60;9.57;;;10.60;99.90;;;;;;5015180;28;20245;-78
2021/09/18 04:48:23;;;;;;;10.43;9.43;;;10.50;99.90;;;;;;5015455;28;20294;-78
2021/09/18 04:50:51;;;;;;;11.75;9.57;;;10.50;99.90;;;;;;5017191;28;20226;-77
2021/09/18 04:53:18;;;;;;;13.20;9.15;;;10.50;99.90;;;;;;5018033;28;20233;-79
2021/09/18 04:55:45;;;;;;;11.93;10.10;;;10.50;99.90;;;;;;5016175;28;20674;-78
2021/09/18 04:58:12;;;;;;;11.10;10.00;;;10.50;99.90;;;;;;5019246;28;20274;-78
2021/09/18 05:00:39;;;;;;;9.55;8.57;;;10.60;99.90;;;;;;5019552;28;20244;-78
2021/09/18 05:03:08;;;;;;;10.40;9.35;;;10.60;99.90;;;;;;5019135;28;20267;-79
2021/09/18 05:05:34;;;;;;;10.00;8.98;;;10.60;99.90;;;;;;5018719;28;20211;-78
2021/09/18 05:08:03;;;;;;;10.27;9.00;;;10.60;99.90;;;;;;5016772;28;20304;-78
2021/09/18 05:10:30;;;;;;;11.20;8.52;;;10.60;99.90;;;;;;5015489;28;20732;-77
2021/09/18 05:12:57;;;;;;;9.90;8.98;;;10.60;99.90;;;;;;5015611;28;20221;-78
2021/09/18 05:15:24;;;;;;;9.90;8.20;;;10.60;99.90;;;;;;5021586;28;20210;-79
2021/09/18 05:17:51;;;;;;;9.90;8.95;;;10.70;99.90;;;;;;5025676;28;20232;-79
2021/09/18 05:20:18;;;;;;;8.68;7.78;;;10.70;99.90;;;;;;5020119;28;20315;-80
2021/09/18 05:22:45;;;;;;;10.52;8.77;;;10.70;99.90;;;;;;5015706;28;20708;-79
2021/09/18 05:25:13;;;;;;;9.43;8.52;;;10.80;99.90;;;;;;5014599;28;20292;-79
2021/09/18 05:27:40;;;;;;;8.63;7.82;;;10.80;99.90;;;;;;5014970;28;20301;-79
2021/09/18 05:30:09;;;;;;;9.18;8.27;;;10.90;99.90;;;;;;5015376;28;20314;-80
2021/09/18 05:32:35;;;;;;;16.52;8.48;;;11.00;99.90;;;;;;4994183;28;20234;-78
2021/09/18 05:35:03;;;;;;;7.97;7.15;;;11.10;99.90;;;;;;4994319;28;20300;-78
2021/09/18 05:37:30;;;;;;;9.00;6.40;;;11.30;99.90;;;;;;4994920;28;20305;-78
2021/09/18 05:39:58;;;;;;;7.65;6.95;;;11.40;99.90;;;;;;4994456;28;20231;-78
2021/09/18 05:42:26;;;;;;;7.90;7.03;;;11.40;99.50;;;;;;4994603;28;20236;-78
2021/09/18 05:44:53;;;;;;;7.43;6.72;;;11.40;98.10;;;;;;4995256;28;20253;-78
2021/09/18 05:47:20;;;;;;;6.90;6.25;;;11.40;97.30;;;;;;4996414;28;20242;-79
2021/09/18 05:49:47;;;;;;;8.18;7.30;;;11.30;97.50;;;;;;5000879;28;20611;-79
2021/09/18 05:52:14;;;;;;;7.05;6.35;;;11.30;97.20;;;;;;4998458;28;20296;-79
2021/09/18 05:54:41;;;;;;;7.53;6.82;;;11.30;97.30;;;;;;4997805;28;20218;-79
2021/09/18 05:57:08;;;;;;;12.88;7.00;;;11.30;97.60;;;;;;5003821;28;20229;-79
2021/09/18 05:59:36;;;;;;;6.38;5.82;;;11.30;97.30;;;;;;5006082;28;20717;-79
2021/09/18 06:02:03;;;;;;;7.63;6.85;;;11.30;97.30;;;;;;5000802;28;20283;-79
2021/09/18 06:04:30;;;;;;;6.97;6.38;;;11.40;97.20;;;;;;5004291;28;20241;-79
2021/09/18 06:06:57;;;;;;;13.20;7.20;;;11.50;97.30;;;;;;5002742;28;20238;-79
2021/09/18 06:09:24;;;;;;;7.35;6.30;;;11.50;97.20;;;;;;4995750;28;20730;-79
2021/09/18 06:11:51;;;;;;;7.50;6.80;;;11.60;97.10;;;;;;4995498;28;20219;-78
2021/09/18 06:14:18;;;;;;;7.40;6.70;;;11.60;95.50;;;;;;4998742;28;20215;-79
2021/09/18 06:16:46;;;;;;;7.40;6.50;;;11.70;95.60;;;;;;5013992;28;20237;-78
2021/09/18 06:19:18;;;;;;;7.47;5.97;;;11.70;94.80;;;;;;5010107;28;20212;-77
2021/09/18 06:21:45;;;;;;;6.00;5.45;;;11.80;94.50;;;;;;4994989;28;20216;-78
2021/09/18 06:24:11;;;;;;;6.85;6.25;;;11.90;93.60;;;;;;4993772;28;20266;-78
2021/09/18 06:26:39;;;;;;;7.05;6.45;;;12.00;93.60;;;;;;5003098;28;20686;-79
2021/09/18 06:29:06;;;;;;;6.28;5.68;;;12.10;92.60;;;;;;4996870;28;20310;-77
2021/09/18 06:31:34;;;;;;;6.63;5.82;;;12.20;92.20;;;;;;4994153;28;20231;-76
2021/09/18 06:34:02;;;;;;;7.40;6.22;;;12.30;92.20;;;;;;4993699;28;20246;-76
2021/09/18 06:36:29;;;;;;;7.60;5.47;;;12.40;91.60;;;;;;4993681;28;20247;-76
2021/09/18 06:38:56;;;;;;;6.60;6.00;;;12.50;90.50;;;;;;4995466;28;20216;-79
2021/09/18 06:41:23;;;;;;;7.55;5.93;;;12.60;90.30;;;;;;5000954;28;20318;-76
2021/09/18 06:43:50;;;;;;;6.50;5.90;;;12.70;89.30;;;;;;4996413;28;20231;-77
2021/09/18 06:46:17;;;;;;;6.10;5.40;;;12.80;88.20;;;;;;4998132;28;20679;-76
2021/09/18 06:48:44;;;;;;;6.78;6.10;;;12.90;87.40;;;;;;4995889;28;20246;-77
2021/09/18 06:51:13;;;;;;;7.03;5.50;;;13.00;87.50;;;;;;4994159;28;20235;-76
2021/09/18 06:53:40;;;;;;;8.52;5.75;;;13.10;86.30;;;;;;4994327;28;20220;-76
2021/09/18 06:56:07;;;;;;;5.72;5.22;;;13.20;85.00;;;;;;4998354;28;20273;-76
2021/09/18 06:58:34;;;;;;;5.97;5.45;;;13.30;84.40;;;;;;5001693;28;20212;-77
2021/09/18 07:01:01;;;;;;;5.97;5.38;;;13.40;83.50;;;;;;4999551;28;20340;-76
2021/09/18 07:03:28;;;;;;;6.32;5.75;;;13.50;82.70;;;;;;5000518;28;20238;-77
2021/09/18 07:05:55;;;;;;;6.00;5.40;;;13.50;82.30;;;;;;4999786;28;20771;-77
2021/09/18 07:08:23;;;;;;;6.88;6.22;;;13.50;81.70;;;;;;4997807;28;20267;-76
2021/09/18 07:10:50;;;;;;;5.25;4.85;;;13.60;79.60;;;;;;4996745;28;20716;-76
2021/09/18 07:13:17;;;;;;;6.10;5.50;;;13.80;79.70;;;;;;4997808;28;20747;-76
2021/09/18 07:15:44;;;;;;;6.20;5.63;;;13.90;78.10;;;;;;4997541;28;20307;-77
2021/09/18 07:18:11;;;;;;;5.75;5.25;;;14.00;78.30;;;;;;4997178;28;20208;-75
2021/09/18 07:20:38;;;;;;;7.82;5.90;;;14.20;79.50;;;;;;4996765;28;20332;-76
2021/09/18 07:23:05;;;;;;;5.80;5.30;;;14.30;78.30;;;;;;4997625;28;20224;-75
2021/09/18 07:25:34;;;;;;;6.80;6.05;;;14.30;76.30;;;;;;5020398;28;20205;-76
2021/09/18 07:28:01;;;;;;;7.82;6.72;;;14.40;77.30;;;;;;5013425;28;20279;-77
2021/09/18 07:30:28;;;;;;;6.85;6.15;;;14.50;77.70;;;;;;4999372;28;20267;-76
2021/09/18 07:32:55;;;;;;;7.07;6.47;;;14.60;77.90;;;;;;4998529;28;20288;-76
2021/09/18 07:35:22;;;;;;;10.48;7.10;;;14.70;77.70;;;;;;4998858;28;20299;-76
2021/09/18 07:37:49;;;;;;;8.17;7.37;;;14.80;77.50;;;;;;4998184;28;20291;-76
2021/09/18 07:40:16;;;;;;;9.45;8.45;;;14.90;78.10;;;;;;4997282;28;20546;-76
2021/09/18 07:42:44;;;;;;;9.93;9.00;;;15.00;79.50;;;;;;5003535;28;20673;-76
2021/09/18 07:45:12;;;;;;;10.23;9.13;;;15.10;79.70;;;;;;5017664;28;20644;-76
2021/09/18 07:47:40;;;;;;;9.30;8.03;;;15.20;78.10;;;;;;5017778;28;20512;-76
2021/09/18 07:50:08;;;;;;;9.60;8.70;;;15.30;77.00;;;;;;5017588;28;20482;-76
2021/09/18 07:52:35;;;;;;;8.30;7.50;;;15.30;78.20;;;;;;5025014;28;20465;-77
2021/09/18 07:55:02;;;;;;;9.60;8.10;;;15.30;78.10;;;;;;5025089;28;20462;-77
2021/09/18 07:57:29;;;;;;;9.53;8.67;;;15.30;77.60;;;;;;5023303;28;20470;-76
2021/09/18 07:59:57;;;;;;;8.37;7.57;;;15.50;76.20;;;;;;5025157;28;20492;-76
2021/09/18 08:02:24;;;;;;;7.90;6.53;;;15.60;75.30;;;;;;5018673;28;20547;-76
2021/09/18 08:04:51;;;;;;;9.17;6.40;;;15.70;72.80;;;;;;5015728;28;20533;-76
2021/09/18 08:07:21;;;;;;;6.60;6.00;;;15.80;72.90;;;;;;5015210;28;20455;-76
2021/09/18 08:09:48;;;;;;;6.93;6.20;;;15.90;71.20;;;;;;5016166;28;20461;-76
2021/09/18 08:12:15;;;;;;;6.00;5.47;;;16.00;71.50;;;;;;5017015;28;20453;-76
2021/09/18 08:14:42;;;;;;;5.10;4.70;;;16.10;68.20;;;;;;5016700;28;20484;-76
2021/09/18 08:17:11;;;;;;;6.57;5.67;;;16.20;66.00;;;;;;5017590;28;20423;-77
2021/09/18 08:19:38;;;;;;;6.90;4.80;;;16.30;66.90;;;;;;5019893;28;20455;-76
2021/09/18 08:22:05;;;;;;;8.40;5.90;;;16.50;66.70;;;;;;5018259;28;20768;-76
2021/09/18 08:24:31;;;;;;;6.43;5.40;;;16.40;64.50;;;;;;5016397;28;20531;-77
2021/09/18 08:26:58;;;;;;;5.20;4.70;;;16.40;66.90;;;;;;5016296;28;20457;-77
2021/09/18 08:29:25;;;;;;;6.30;4.83;;;16.70;64.80;;;;;;5016500;28;20480;-77
2021/09/18 08:31:52;;;;;;;5.10;4.60;;;16.60;64.70;;;;;;5016269;28;20961;-76
2021/09/18 08:34:21;;;;;;;5.57;5.07;;;16.80;64.90;;;;;;5016554;28;20453;-76
2021/09/18 08:36:48;;;;;;;5.50;4.33;;;17.00;63.90;;;;;;5016316;28;21039;-77
2021/09/18 08:39:14;;;;;;;5.37;4.90;;;17.10;64.50;;;;;;5015854;28;20433;-76
2021/09/18 08:41:45;;;;;;;4.97;4.57;;;17.10;63.40;;;;;;5016335;28;20468;-76
2021/09/18 08:44:12;;;;;;;7.17;5.20;;;17.30;63.20;;;;;;5016193;28;21005;-76
2021/09/18 08:46:40;;;;;;;7.47;6.77;;;17.40;63.10;;;;;;5014938;28;21049;-77
2021/09/18 08:49:07;;;;;;;5.73;5.23;;;17.60;63.60;;;;;;5015167;28;20574;-77
2021/09/18 08:51:36;;;;;;;5.30;4.80;;;17.70;63.30;;;;;;5017038;28;20436;-77
2021/09/18 08:54:04;;;;;;;5.17;4.70;;;17.90;61.60;;;;;;5017841;28;20458;-76
2021/09/18 08:56:31;;;;;;;5.77;5.13;;;17.90;60.70;;;;;;5015587;28;20806;-76
2021/09/18 08:58:58;;;;;;;5.50;5.00;;;17.90;61.60;;;;;;5016345;28;20513;-76
2021/09/18 09:01:26;;;;;;;5.60;5.10;;;17.80;61.20;;;;;;5026202;28;20914;-76
2021/09/18 09:03:58;;;;;;;4.93;4.53;;;17.90;62.00;;;;;;5025230;28;20546;-77
2021/09/18 09:06:26;;;;;;;10.60;5.43;;;18.10;62.40;;;;;;5019059;28;20433;-77
2021/09/18 09:09:00;;;;;;;6.13;5.53;;;18.30;61.00;;;;;;5021333;28;20461;-77
2021/09/18 09:11:28;;;;;;;5.17;4.77;;;18.20;61.20;;;;;;5018274;28;20482;-77
2021/09/18 09:14:03;;;;;;;8.73;5.10;;;18.30;61.60;;;;;;5017365;28;20465;-77
2021/09/18 09:16:32;;;;;;;5.73;4.53;;;18.40;61.00;;;;;;5016933;28;20499;-77
2021/09/18 09:18:59;;;;;;;6.10;5.50;;;18.70;60.30;;;;;;5018642;28;20485;-77
2021/09/18 09:21:28;;;;;;;5.97;5.37;;;18.80;60.40;;;;;;5025912;28;20510;-77
2021/09/18 09:24:13;;;;;;;5.20;4.70;;;18.90;59.20;;;;;;5018244;28;20518;-77
2021/09/18 09:26:42;;;;;;;5.87;4.73;;;19.10;57.80;;;;;;5032115;28;20474;-76
2021/09/18 09:29:10;;;;;;;5.20;4.70;;;19.20;55.80;;;;;;5019826;28;20490;-76
2021/09/18 09:31:39;;;;;;;5.70;5.17;;;19.20;55.90;;;;;;5016504;28;20943;-76
2021/09/18 09:34:11;;;;;;;5.60;4.13;;;19.60;55.70;;;;;;5021587;28;20465;-77
2021/09/18 09:36:41;;;;;;;5.73;4.23;;;19.60;52.20;;;;;;5023114;28;20806;-77
2021/09/18 09:39:14;;;;;;;4.83;4.17;;;19.70;50.40;;;;;;5022075;28;20463;-78
2021/09/18 09:41:43;;;;;;;4.47;4.10;;;19.70;48.60;;;;;;5022035;28;20542;-77
2021/09/18 09:44:12;;;;;;;4.40;3.87;;;19.60;48.50;;;;;;5023047;28;20492;-77
2021/09/18 09:46:39;;;;;;;5.57;4.30;;;19.70;49.40;;;;;;5022141;28;20467;-77
2021/09/18 09:49:17;;;;;;;4.87;4.47;;;19.90;50.10;;;;;;5022123;28;20418;-77
2021/09/18 09:51:45;;;;;;;8.50;4.07;;;19.90;50.50;;;;;;5023841;28;20479;-78
2021/09/18 09:54:21;;;;;;;7.83;5.03;;;20.10;50.10;;;;;;5023096;28;20497;-77
2021/09/18 09:56:49;;;;;;;9.40;4.10;;;20.00;52.20;;;;;;5020911;28;20779;-77
2021/09/18 09:59:31;;;;;;;4.70;3.50;;;20.00;51.10;;;;;;5018592;28;20460;-77
2021/09/18 10:01:58;;;;;;;4.70;3.97;;;20.30;49.90;;;;;;5031350;23;20520;-77
2021/09/18 10:04:25;;;;;;;4.47;4.07;;;20.20;49.00;;;;;;5021864;28;20843;-78
2021/09/18 10:06:52;;;;;;;3.90;3.60;;;20.20;47.90;;;;;;5021754;28;20434;-77
2021/09/18 10:09:22;;;;;;;3.40;3.10;;;20.20;46.70;;;;;;5021175;28;20460;-77
2021/09/18 10:11:49;;;;;;;3.70;3.40;;;20.40;47.00;;;;;;5020914;28;20454;-77
2021/09/18 10:14:21;;;;;;;3.40;3.00;;;20.60;45.40;;;;;;5019334;28;20523;-76
2021/09/18 10:16:50;;;;;;;3.60;3.27;;;20.60;45.00;;;;;;5006099;28;20622;-75
2021/09/18 10:19:18;;;;;;;8.20;4.40;;;20.60;44.10;;;;;;5018812;28;20564;-76
2021/09/18 10:24:36;;;;;;;3.70;2.47;;;21.00;42.30;;;;;;5012077;28;20512;-75
2021/09/18 10:27:27;;;;;;;2.50;2.30;;;20.90;40.10;;;;;;5013177;28;20466;-78
2021/09/18 10:29:55;;;;;;;2.37;2.27;;;20.90;39.60;;;;;;4997901;28;20520;-78
2021/09/18 10:32:24;;;;;;;3.90;2.30;;;20.90;39.60;;;;;;5031558;28;20517;-78
2021/09/18 10:35:10;;;;;;;4.03;2.00;;;21.00;38.90;;;;;;5033735;28;20508;-77
2021/09/18 10:37:39;;;;;;;2.70;2.10;;;21.00;38.50;;;;;;5029164;28;20518;-76
2021/09/18 10:40:10;;;;;;;1.90;1.80;;;21.10;39.90;;;;;;5020261;28;21266;-77
2021/09/18 10:42:39;;;;;;;6.97;1.90;;;21.20;36.10;;;;;;5016813;28;20980;-77
2021/09/18 10:45:08;;;;;;;1.90;1.80;;;21.20;35.40;;;;;;5018369;28;20481;-77
2021/09/18 10:47:38;;;;;;;2.50;1.73;;;21.10;35.60;;;;;;5018150;28;20560;-77
2021/09/18 10:50:27;;;;;;;2.23;1.87;;;21.20;36.60;;;;;;5017570;28;20563;-78
2021/09/18 10:52:58;;;;;;;3.67;2.43;;;21.30;37.20;;;;;;5016036;28;20464;-77
2021/09/18 10:55:27;;;;;;;8.43;2.23;;;21.10;36.30;;;;;;5016885;28;20428;-78
2021/09/18 10:58:07;;;;;;;4.47;2.30;;;21.10;37.30;;;;;;5017611;28;20444;-77
2021/09/18 11:00:43;;;;;;;3.07;2.17;;;21.30;37.60;;;;;;5016765;28;20498;-78
2021/09/18 11:03:10;;;;;;;2.40;2.20;;;21.40;37.50;;;;;;5017257;28;20445;-78
2021/09/18 11:05:48;;;;;;;2.50;2.30;;;21.30;38.10;;;;;;5017229;28;20568;-78
2021/09/18 11:08:26;;;;;;;2.70;2.50;;;21.40;38.40;;;;;;5018375;28;20461;-77
2021/09/18 11:10:57;;;;;;;2.10;2.00;;;21.40;38.10;;;;;;5018967;28;20449;-76
2021/09/18 11:13:26;;;;;;;2.50;2.30;;;21.50;37.50;;;;;;5018801;28;20441;-78
2021/09/18 11:15:54;;;;;;;2.43;2.23;;;21.70;36.50;;;;;;5032412;28;20417;-78
2021/09/18 11:18:30;;;;;;;2.60;2.40;;;21.70;36.70;;;;;;5034270;28;20433;-78
2021/09/18 11:21:05;;;;;;;2.30;2.10;;;21.70;36.90;;;;;;5032329;28;20501;-78
2021/09/18 11:23:35;;;;;;;2.43;2.23;;;21.80;36.70;;;;;;5024851;28;20504;-77
2021/09/18 11:26:40;;;;;;;2.67;2.57;;;21.70;37.30;;;;;;5026336;28;20500;-78
2021/09/18 11:29:16;;;;;;;2.90;2.33;;;21.90;37.60;;;;;;5030022;28;20454;-79
2021/09/18 11:31:58;;;;;;;5.40;2.93;;;21.90;37.20;;;;;;5019451;28;20557;-77
2021/09/18 11:34:27;;;;;;;2.80;2.60;;;21.60;37.30;;;;;;5023420;28;20481;-78
2021/09/18 11:36:56;;;;;;;2.77;2.57;;;21.50;38.10;;;;;;5019342;28;20869;-77
2021/09/18 11:39:50;;;;;;;4.40;2.83;;;21.70;37.20;;;;;;5019884;28;20450;-77
2021/09/18 11:42:21;;;;;;;2.80;2.60;;;22.00;36.60;;;;;;5024087;28;20490;-77
2021/09/18 11:44:50;;;;;;;2.93;2.67;;;21.80;35.80;;;;;;5028008;28;20534;-77
2021/09/18 11:47:25;;;;;;;3.03;2.80;;;21.90;37.20;;;;;;5031979;28;20461;-78
2021/09/18 11:49:52;;;;;;;2.90;2.70;;;22.10;35.40;;;;;;5032551;28;20450;-78
2021/09/18 11:52:20;;;;;;;4.77;2.53;;;22.20;37.10;;;;;;5031146;28;20478;-78
2021/09/18 11:54:46;;;;;;;2.80;2.60;;;22.40;36.60;;;;;;5030429;28;20509;-76
2021/09/18 11:57:16;;;;;;;3.87;3.00;;;22.40;36.40;;;;;;5028596;28;20453;-77
2021/09/18 11:59:45;;;;;;;3.20;2.90;;;22.50;36.00;;;;;;5027170;28;20993;-78
2021/09/18 12:02:12;;;;;;;3.17;2.80;;;22.20;36.70;;;;;;5026862;28;20474;-78
2021/09/18 12:04:44;;;;;;;2.83;2.63;;;22.20;36.00;;;;;;5030044;28;21239;-77
2021/09/18 12:07:12;;;;;;;3.40;3.10;;;22.20;35.70;;;;;;5028967;28;20831;-77
2021/09/18 12:09:39;;;;;;;2.83;2.53;;;22.30;35.50;;;;;;5029892;28;20455;-77
2021/09/18 12:12:07;;;;;;;2.90;2.70;;;22.10;36.40;;;;;;5028156;28;20505;-77
2021/09/18 12:14:35;;;;;;;3.27;2.97;;;22.00;36.70;;;;;;5036902;28;20950;-78
2021/09/18 12:17:14;;;;;;;4.60;3.20;;;22.00;36.70;;;;;;5046008;28;20493;-76
2021/09/18 12:19:42;;;;;;;3.90;3.00;;;22.00;37.10;;;;;;5045908;28;20471;-74
2021/09/18 12:22:09;;;;;;;5.13;3.00;;;22.10;36.90;;;;;;5043665;28;20480;-77
2021/09/18 12:24:37;;;;;;;2.80;2.60;;;22.00;36.30;;;;;;5044215;28;20513;-78
2021/09/18 12:27:23;;;;;;;6.13;3.23;;;22.00;36.50;;;;;;5043057;28;20453;-77
2021/09/18 12:29:59;;;;;;;2.90;2.67;;;22.10;35.80;;;;;;5042994;28;20465;-77
2021/09/18 12:32:27;;;;;;;2.60;2.40;;;22.20;35.50;;;;;;5042894;28;20449;-78
2021/09/18 12:35:03;;;;;;;2.93;2.73;;;22.40;33.80;;;;;;5042980;28;20445;-77
2021/09/18 12:37:33;;;;;;;3.00;2.80;;;22.50;34.60;;;;;;5043129;28;20548;-78
2021/09/18 12:40:19;;;;;;;2.90;2.70;;;22.80;33.60;;;;;;5043124;28;20822;-76
2021/09/18 12:43:02;;;;;;;2.83;2.63;;;22.70;34.30;;;;;;5041124;28;20503;-78
2021/09/18 12:45:29;;;;;;;3.40;3.17;;;22.30;36.00;;;;;;5022079;28;20528;-75
2021/09/18 12:48:19;;;;;;;3.50;3.20;;;22.10;37.60;;;;;;5022022;28;20480;-74
2021/09/18 12:50:53;;;;;;;3.00;2.80;;;22.20;36.70;;;;;;5022095;28;20502;-74
2021/09/18 12:53:22;;;;;;;5.80;3.00;;;22.50;36.00;;;;;;5019958;28;20486;-75
2021/09/18 12:56:15;;;;;;;3.17;2.90;;;22.40;35.70;;;;;;5020553;28;20455;-74